Time;durP1;ratioP1;P1;durP2;ratioP2;P2;SDS_P1;SDS_P2;PMS_P1;PMS_P2;Temp;Humidity;BMP_temperature;BMP_pressure;BME280_temperature;BME280_humidity;BME280_pressure;Samples;Min_cycle;Max_cycle;Signal;HPM_P1;HPM_P2
2022/11/15 00:00:27;;;;;;;5.32;3.20;;;;;;;2.29;100.00;92832.31;2125841;27;20457;-72
2022/11/15 00:01:28;;;;;;;4.68;2.88;;;;;;;2.30;100.00;92839.84;2131751;27;20113;-72
2022/11/15 00:02:31;;;;;;;4.13;3.10;;;;;;;2.33;100.00;92827.78;2131535;27;20031;-73
2022/11/15 00:03:32;;;;;;;2.97;2.67;;;;;;;2.44;100.00;92829.34;2129684;27;20099;-73
2022/11/15 00:04:33;;;;;;;8.98;3.05;;;;;;;2.42;100.00;92831.63;2126620;27;20118;-73
2022/11/15 00:05:35;;;;;;;6.43;3.67;;;;;;;2.39;100.00;92824.44;2130204;27;20031;-73
2022/11/15 00:06:36;;;;;;;3.75;3.05;;;;;;;2.46;100.00;92824.47;2122795;27;20035;-73
2022/11/15 00:07:37;;;;;;;3.42;2.80;;;;;;;2.44;100.00;92820.69;2123405;27;20019;-73
2022/11/15 00:08:38;;;;;;;5.20;3.10;;;;;;;2.49;100.00;92825.59;2123181;27;20027;-73
2022/11/15 00:09:39;;;;;;;6.63;3.42;;;;;;;2.45;100.00;92822.94;2129427;27;20173;-72
2022/11/15 00:10:40;;;;;;;3.85;2.70;;;;;;;2.43;100.00;92819.94;2127586;27;20079;-72
2022/11/15 00:11:41;;;;;;;3.67;2.80;;;;;;;2.49;100.00;92821.09;2123248;27;20438;-72
2022/11/15 00:12:42;;;;;;;3.67;3.13;;;;;;;2.50;100.00;92814.69;2123140;27;20027;-73
2022/11/15 00:13:43;;;;;;;6.00;3.25;;;;;;;2.56;100.00;92819.63;2123413;27;20069;-73
2022/11/15 00:14:44;;;;;;;4.82;3.20;;;;;;;2.52;100.00;92809.78;2123113;27;20469;-73
2022/11/15 00:15:45;;;;;;;3.95;3.10;;;;;;;2.51;100.00;92820.72;2123884;27;20442;-72
2022/11/15 00:16:46;;;;;;;4.78;3.10;;;;;;;2.59;100.00;92814.34;2116943;27;20038;-73
2022/11/15 00:17:50;;;;;;;3.88;3.08;;;;;;;2.51;100.00;92812.81;2115641;27;20051;-72
2022/11/15 00:18:51;;;;;;;7.22;2.90;;;;;;;2.47;100.00;92809.41;2123162;27;20038;-73
2022/11/15 00:19:52;;;;;;;3.70;2.72;;;;;;;2.51;100.00;92803.00;2122797;27;20027;-73
2022/11/15 00:20:55;;;;;;;4.50;2.85;;;;;;;2.49;100.00;92810.53;2122905;27;20031;-72
2022/11/15 00:21:57;;;;;;;2.95;2.67;;;;;;;2.48;100.00;92805.63;2113856;27;20445;-73
2022/11/15 00:22:58;;;;;;;2.65;2.45;;;;;;;2.54;100.00;92798.88;2114856;28;20454;-74
2022/11/15 00:23:59;;;;;;;3.10;2.78;;;;;;;2.51;100.00;92799.63;2114597;28;20059;-73
2022/11/15 00:25:00;;;;;;;2.45;2.25;;;;;;;2.57;100.00;92803.41;2114322;28;20403;-72
2022/11/15 00:26:01;;;;;;;3.17;2.80;;;;;;;2.47;100.00;92798.84;2114172;27;20020;-74
2022/11/15 00:27:02;;;;;;;2.83;2.40;;;;;;;2.49;100.00;92789.44;2114679;28;20532;-73
2022/11/15 00:28:03;;;;;;;2.92;2.45;;;;;;;2.50;100.00;92796.22;2114715;28;20031;-73
2022/11/15 00:29:05;;;;;;;2.88;2.67;;;;;;;2.52;100.00;92791.31;2114464;28;20047;-73
2022/11/15 00:30:06;;;;;;;3.97;2.70;;;;;;;2.50;100.00;92790.19;2114392;27;20027;-73
2022/11/15 00:31:12;;;;;;;2.83;2.40;;;;;;;2.57;100.00;92792.09;2114618;27;20507;-73
2022/11/15 00:32:13;;;;;;;2.90;2.67;;;;;;;2.67;100.00;92788.72;2123053;27;20134;-73
2022/11/15 00:33:14;;;;;;;2.63;2.42;;;;;;;2.81;100.00;92778.22;2123081;27;20100;-74
2022/11/15 00:34:15;;;;;;;3.72;2.47;;;;;;;2.81;100.00;92778.22;2122849;27;20027;-73
2022/11/15 00:35:16;;;;;;;2.92;2.60;;;;;;;2.74;100.00;92786.13;2122579;27;20023;-73
2022/11/15 00:36:17;;;;;;;3.00;2.70;;;;;;;2.70;100.00;92785.34;2119236;27;20067;-73
2022/11/15 00:37:18;;;;;;;4.07;2.63;;;;;;;2.61;100.00;92785.69;2117711;27;20472;-73
2022/11/15 00:38:19;;;;;;;3.47;3.05;;;;;;;2.58;100.00;92780.41;2121371;27;20087;-73
2022/11/15 00:39:20;;;;;;;3.45;2.70;;;;;;;2.51;100.00;92789.06;2115954;27;20054;-73
2022/11/15 00:40:21;;;;;;;3.50;3.20;;;;;;;2.47;100.00;92788.31;2113656;28;20031;-73
2022/11/15 00:41:22;;;;;;;3.10;2.50;;;;;;;2.43;100.00;92784.91;2114416;28;20672;-73
2022/11/15 00:42:23;;;;;;;2.58;2.38;;;;;;;2.50;100.00;92780.41;2114442;28;20058;-73
2022/11/15 00:43:24;;;;;;;5.05;2.65;;;;;;;2.51;100.00;92774.00;2114598;28;20032;-73
2022/11/15 00:44:25;;;;;;;5.55;2.72;;;;;;;2.56;100.00;92782.69;2114267;28;20026;-73
2022/11/15 00:45:26;;;;;;;3.20;2.90;;;;;;;2.51;100.00;92786.44;2114431;28;20054;-73
2022/11/15 00:46:27;;;;;;;11.45;3.00;;;;;;;2.58;100.00;92777.78;2113915;28;20042;-73
2022/11/15 00:47:28;;;;;;;3.05;2.40;;;;;;;2.61;100.00;92787.59;2114492;27;20039;-74
2022/11/15 00:48:30;;;;;;;4.50;3.03;;;;;;;2.62;100.00;92781.19;2114662;27;20034;-74
2022/11/15 00:49:31;;;;;;;3.15;2.40;;;;;;;2.66;100.00;92771.38;2114556;28;20034;-72
2022/11/15 00:50:31;;;;;;;3.90;2.60;;;;;;;2.63;100.00;92780.03;2114453;28;20154;-75
2022/11/15 00:51:32;;;;;;;3.28;2.75;;;;;;;2.70;100.00;92775.53;2114107;28;20063;-74
2022/11/15 00:52:33;;;;;;;3.78;2.67;;;;;;;2.75;100.00;92780.44;2115647;27;20130;-72
2022/11/15 00:53:34;;;;;;;2.90;2.70;;;;;;;2.80;100.00;92787.25;2122795;27;20177;-73
2022/11/15 00:54:35;;;;;;;3.60;2.58;;;;;;;2.78;100.00;92774.44;2120080;27;20525;-71
2022/11/15 00:55:36;;;;;;;3.00;2.70;;;;;;;2.77;100.00;92774.81;2120913;27;20030;-72
2022/11/15 00:56:37;;;;;;;4.38;2.85;;;;;;;2.84;100.00;92782.72;2114139;28;20547;-73
2022/11/15 00:57:38;;;;;;;3.63;3.00;;;;;;;2.85;100.00;92775.56;2121837;27;20091;-73
2022/11/15 00:58:41;;;;;;;3.25;2.83;;;;;;;2.90;100.00;92770.69;2123066;27;20023;-73
2022/11/15 00:59:41;;;;;;;7.05;3.20;;;;;;;2.90;100.00;92764.66;2122880;27;20480;-72
2022/11/15 01:00:42;;;;;;;3.15;2.80;;;;;;;2.91;100.00;92769.56;2122781;27;20023;-72
2022/11/15 01:01:43;;;;;;;5.20;3.13;;;;;;;2.89;100.00;92768.41;2122576;27;20102;-73
2022/11/15 01:02:44;;;;;;;6.93;2.85;;;;;;;2.85;100.00;92768.41;2122788;27;20035;-72
2022/11/15 01:03:45;;;;;;;5.13;2.80;;;;;;;2.75;100.00;92766.50;2122067;27;20054;-72
2022/11/15 01:04:46;;;;;;;4.63;3.47;;;;;;;2.73;100.00;92766.88;2122892;27;20054;-72
2022/11/15 01:05:47;;;;;;;3.20;2.90;;;;;;;2.70;100.00;92772.16;2123061;27;20038;-72
2022/11/15 01:06:48;;;;;;;6.07;3.10;;;;;;;2.65;100.00;92764.59;2114775;27;20031;-72
2022/11/15 01:07:53;;;;;;;7.75;3.28;;;;;;;2.64;100.00;92761.22;2114354;28;20076;-73
2022/11/15 01:08:54;;;;;;;4.65;3.47;;;;;;;2.68;100.00;92769.91;2115495;27;20138;-73
2022/11/15 01:09:55;;;;;;;3.75;3.35;;;;;;;2.67;100.00;92768.38;2121917;27;20038;-73
2022/11/15 01:11:04;;;;;;;3.75;3.45;;;;;;;2.74;100.00;92767.63;2122013;27;20030;-74
2022/11/15 01:12:05;;;;;;;5.50;3.70;;;;;;;2.77;100.00;92767.66;2122508;27;20111;-73
2022/11/15 01:13:06;;;;;;;7.55;3.40;;;;;;;2.69;100.00;92768.00;2119589;27;20044;-74
2022/11/15 01:14:07;;;;;;;5.57;3.70;;;;;;;2.70;100.00;92766.88;2119481;27;20027;-73
2022/11/15 01:15:08;;;;;;;6.57;4.28;;;;;;;2.69;100.00;92762.72;2116075;27;20034;-72
2022/11/15 01:16:16;;;;;;;4.53;3.70;;;;;;;2.70;100.00;92761.59;2125094;27;21222;-73
2022/11/15 01:17:17;;;;;;;4.50;4.10;;;;;;;2.61;100.00;92759.31;2130846;27;20031;-73
2022/11/15 01:18:18;;;;;;;4.60;3.88;;;;;;;2.57;100.00;92755.91;2130980;27;20097;-74
2022/11/15 01:19:19;;;;;;;4.60;3.53;;;;;;;2.57;100.00;92768.34;2123046;27;20026;-74
2022/11/15 01:20:20;;;;;;;5.68;3.58;;;;;;;2.51;100.00;92755.53;2122561;27;20477;-74
2022/11/15 01:21:21;;;;;;;4.55;3.78;;;;;;;2.50;100.00;92755.88;2122713;27;20038;-74
2022/11/15 01:22:22;;;;;;;7.57;3.50;;;;;;;2.58;100.00;92749.50;2113336;28;20657;-74
2022/11/15 01:23:23;;;;;;;4.95;3.95;;;;;;;2.63;100.00;92753.66;2113542;27;20034;-74
2022/11/15 01:24:24;;;;;;;4.07;3.60;;;;;;;2.66;100.00;92755.56;2112948;28;20031;-74
2022/11/15 01:25:25;;;;;;;9.10;3.78;;;;;;;2.64;100.00;92749.91;2113521;27;20363;-75
2022/11/15 01:26:26;;;;;;;4.32;3.88;;;;;;;2.61;100.00;92748.00;2122296;27;20027;-75
2022/11/15 01:27:28;;;;;;;4.82;3.20;;;;;;;2.61;100.00;92748.00;2122412;27;20369;-74
2022/11/15 01:28:34;;;;;;;4.60;3.78;;;;;;;2.55;100.00;92746.84;2122803;27;20066;-74
2022/11/15 01:29:35;;;;;;;4.18;3.40;;;;;;;2.57;100.00;92741.97;2128007;27;20022;-73
2022/11/15 01:30:36;;;;;;;4.63;3.28;;;;;;;2.61;100.00;92745.38;2122566;27;20030;-74
2022/11/15 01:31:37;;;;;;;4.82;3.63;;;;;;;2.60;100.00;92743.88;2122783;27;20035;-73
2022/11/15 01:32:39;;;;;;;5.28;3.63;;;;;;;2.53;100.00;92744.59;2122288;27;20453;-74
2022/11/15 01:33:40;;;;;;;3.50;3.20;;;;;;;2.57;100.00;92741.97;2123008;27;20028;-74
2022/11/15 01:34:41;;;;;;;3.63;3.28;;;;;;;2.59;100.00;92739.69;2125849;27;20042;-74
2022/11/15 01:35:42;;;;;;;3.80;3.40;;;;;;;2.62;100.00;92742.34;2124044;27;20027;-74
2022/11/15 01:36:43;;;;;;;5.95;3.22;;;;;;;2.69;100.00;92736.34;2122591;27;20022;-74
2022/11/15 01:37:44;;;;;;;6.13;3.80;;;;;;;2.65;100.00;92741.63;2122323;27;20053;-74
2022/11/15 01:38:45;;;;;;;4.05;3.65;;;;;;;2.65;100.00;92738.97;2122576;27;20026;-74
2022/11/15 01:39:46;;;;;;;6.38;3.38;;;;;;;2.64;100.00;92742.00;2122180;27;20453;-74
2022/11/15 01:40:48;;;;;;;5.32;4.07;;;;;;;2.69;100.00;92739.00;2122431;27;20083;-74
2022/11/15 01:41:49;;;;;;;3.85;3.53;;;;;;;2.72;100.00;92748.78;2122462;27;20373;-74
2022/11/15 01:42:50;;;;;;;7.63;4.00;;;;;;;2.71;100.00;92744.63;2122521;27;20034;-74
2022/11/15 01:43:57;;;;;;;6.22;4.15;;;;;;;2.68;100.00;92735.59;2122150;27;20103;-75
2022/11/15 01:44:58;;;;;;;6.90;3.65;;;;;;;2.72;100.00;92744.28;2122268;27;20115;-74
2022/11/15 01:46:05;;;;;;;6.97;4.00;;;;;;;2.76;100.00;92738.97;2122209;27;20027;-74
2022/11/15 01:47:16;;;;;;;4.47;3.53;;;;;;;2.88;100.00;92751.06;2122311;27;20019;-74
2022/11/15 01:48:17;;;;;;;6.45;4.30;;;;;;;2.88;100.00;92743.16;2122099;27;20019;-74
2022/11/15 01:49:21;;;;;;;7.45;4.15;;;;;;;2.88;100.00;92740.50;2123123;27;20023;-74
2022/11/15 01:50:29;;;;;;;13.07;4.72;;;;;;;2.87;100.00;92739.75;2131258;27;20030;-74
2022/11/15 01:51:33;;;;;;;6.72;4.35;;;;;;;2.87;100.00;92729.19;2131169;27;20022;-75
2022/11/15 01:52:37;;;;;;;7.68;4.25;;;;;;;2.84;100.00;92737.88;2131040;27;20793;-74
2022/11/15 01:53:41;;;;;;;6.95;4.10;;;;;;;2.87;100.00;92731.09;2121226;27;20441;-74
2022/11/15 01:54:43;;;;;;;6.25;4.50;;;;;;;2.91;100.00;92739.78;2117000;27;20052;-74
2022/11/15 01:55:44;;;;;;;4.60;4.13;;;;;;;3.06;100.00;92738.63;2113264;28;20088;-74
2022/11/15 01:56:54;;;;;;;8.52;4.85;;;;;;;3.10;100.00;92741.28;2119937;27;20079;-74
2022/11/15 01:57:57;;;;;;;;;;;;;;;3.03;100.00;92734.88;2131548;27;20015;-74
2022/11/15 01:59:03;;;;;;;6.15;5.00;;;;;;;3.03;100.00;92740.16;2130947;27;20253;-74
2022/11/15 02:00:05;;;;;;;5.82;5.03;;;;;;;3.03;100.00;92740.16;2123939;27;20122;-74
2022/11/15 02:01:06;;;;;;;4.93;4.35;;;;;;;3.04;100.00;92738.25;2122512;27;20019;-74
2022/11/15 02:02:08;;;;;;;5.90;4.63;;;;;;;3.05;100.00;92744.28;2122646;27;20419;-74
2022/11/15 02:03:09;;;;;;;5.47;4.28;;;;;;;3.01;100.00;92742.41;2122196;27;20053;-75
2022/11/15 02:04:15;;;;;;;5.80;4.68;;;;;;;3.14;100.00;92736.75;2122268;27;20079;-74
2022/11/15 02:05:16;;;;;;;8.07;5.00;;;;;;;3.19;100.00;92721.28;2128386;27;20408;-74
2022/11/15 02:06:18;;;;;;;6.53;4.45;;;;;;;3.21;100.00;92732.22;2127450;27;20106;-74
2022/11/15 02:07:21;;;;;;;8.25;4.88;;;;;;;3.19;100.00;92728.44;2121747;27;20548;-73
2022/11/15 02:08:23;;;;;;;10.35;4.78;;;;;;;3.20;100.00;92727.31;2122199;27;20359;-73
2022/11/15 02:09:24;;;;;;;10.13;5.20;;;;;;;3.18;100.00;92726.94;2127700;27;20037;-73
2022/11/15 02:10:25;;;;;;;6.25;4.78;;;;;;;3.19;100.00;92718.63;2124266;27;20461;-73
2022/11/15 02:11:26;;;;;;;9.60;5.40;;;;;;;3.19;100.00;92728.44;2122164;27;20043;-73
2022/11/15 02:12:28;;;;;;;5.55;4.93;;;;;;;3.18;100.00;92714.50;2122103;28;20126;-73
2022/11/15 02:13:29;;;;;;;7.40;5.00;;;;;;;3.14;100.00;92716.38;2122406;28;20035;-73
2022/11/15 02:16:54;;;;;;;;;;;;;;;3.17;100.00;92710.34;2147253;27;20535;-74
2022/11/15 02:18:24;;;;;;;7.47;5.95;;;;;;;3.17;100.00;92720.16;2147024;27;19910;-74
2022/11/15 02:19:31;;;;;;;9.57;6.18;;;;;;;3.16;100.00;92718.63;2146681;27;20386;-74
2022/11/15 02:20:46;;;;;;;10.85;6.70;;;;;;;3.14;100.00;92715.63;2143040;27;20041;-74
2022/11/15 02:22:15;;;;;;;9.65;6.40;;;;;;;3.14;100.00;92713.00;2138361;27;20464;-73
2022/11/15 02:23:25;;;;;;;13.63;7.05;;;;;;;3.15;100.00;92715.25;2138161;27;20544;-74
2022/11/15 02:25:14;;;;;;;9.70;6.55;;;;;;;3.24;100.00;92718.25;2138279;27;20027;-74
2022/11/15 02:26:18;;;;;;;9.85;6.65;;;;;;;3.27;100.00;92712.22;2129197;27;20038;-74
2022/11/15 02:27:45;;;;;;;5.18;4.60;;;;;;;3.36;100.00;92719.00;2129337;27;20364;-74
2022/11/15 02:29:11;;;;;;;6.38;4.25;;;;;;;3.40;100.00;92717.88;2129538;27;20027;-74
2022/11/15 02:30:41;;;;;;;5.65;3.67;;;;;;;3.36;100.00;92706.56;2134997;27;20042;-72
2022/11/15 02:32:06;;;;;;;4.40;3.85;;;;;;;3.34;100.00;92711.47;2137084;27;20437;-71
2022/11/15 02:33:22;;;;;;;5.40;3.42;;;;;;;3.40;100.00;92709.19;2143682;27;20040;-73
2022/11/15 02:34:42;;;;;;;4.25;3.85;;;;;;;3.42;100.00;92702.38;2140231;27;20458;-73
2022/11/15 02:36:04;;;;;;;4.97;3.60;;;;;;;3.44;100.00;92696.72;2146627;27;20022;-73
2022/11/15 02:37:24;;;;;;;7.10;3.53;;;;;;;3.50;100.00;92698.59;2129684;27;20039;-74
2022/11/15 02:38:40;;;;;;;;;;;;;;;3.47;100.00;92695.97;2121289;28;20419;-71
2022/11/15 02:40:02;;;;;;;6.97;2.92;;;;;;;3.40;100.00;92688.81;2122765;27;19904;-73
2022/11/15 02:41:10;;;;;;;8.60;3.83;;;;;;;3.38;100.00;92691.09;2129292;27;20033;-73
2022/11/15 02:44:03;;;;;;;6.20;3.85;;;;;;;3.34;100.00;92687.69;2124219;27;20026;-74
2022/11/15 02:45:08;;;;;;;7.07;3.75;;;;;;;3.32;100.00;92689.94;2129292;27;20022;-71
2022/11/15 02:47:12;;;;;;;6.70;4.30;;;;;;;3.36;100.00;92676.75;2128838;27;20023;-72
2022/11/15 02:47:52;;;;;;;5.88;3.63;;;;;;;3.49;100.00;92675.97;2129420;27;20098;-71
2022/11/15 02:48:55;;;;;;;4.85;3.63;;;;;;;3.52;100.00;92677.09;2129471;27;20484;-74
2022/11/15 02:50:09;;;;;;;5.68;4.03;;;;;;;3.46;100.00;92663.50;2129466;27;20031;-74
2022/11/15 02:51:12;;;;;;;5.32;3.90;;;;;;;3.40;100.00;92662.41;2129083;27;20033;-73
2022/11/15 02:52:17;;;;;;;5.85;4.32;;;;;;;3.40;100.00;92669.56;2122690;27;20030;-73
2022/11/15 02:53:24;;;;;;;5.72;3.58;;;;;;;3.42;100.00;92667.28;2124489;27;20500;-74
2022/11/15 02:54:32;;;;;;;4.35;3.83;;;;;;;3.39;100.00;92673.34;2139816;27;20030;-74
2022/11/15 02:55:40;;;;;;;4.00;3.60;;;;;;;3.38;100.00;92674.47;2146647;27;20038;-74
2022/11/15 02:56:45;;;;;;;7.90;4.32;;;;;;;3.40;100.00;92670.31;2145974;27;20457;-73
2022/11/15 02:58:05;;;;;;;8.85;4.78;;;;;;;3.44;100.00;92673.72;2128947;27;20046;-73
2022/11/15 02:59:37;;;;;;;10.30;5.07;;;;;;;3.54;100.00;92678.19;2120131;28;20023;-71
2022/11/15 03:00:58;;;;;;;6.78;4.90;;;;;;;3.47;100.00;92675.59;2124690;27;20035;-74
2022/11/15 03:02:11;;;;;;;6.75;4.57;;;;;;;3.57;100.00;92678.59;2128928;27;20081;-74
2022/11/15 03:03:36;;;;;;;7.40;4.40;;;;;;;3.70;100.00;92672.50;2137831;27;20532;-73
2022/11/15 03:04:45;;;;;;;5.35;4.20;;;;;;;3.70;100.00;92667.22;2137838;27;20022;-73
2022/11/15 03:05:57;;;;;;;7.00;4.50;;;;;;;3.73;100.00;92666.47;2137991;27;20026;-73
2022/11/15 03:07:13;;;;;;;7.68;4.45;;;;;;;3.61;100.00;92671.41;2128933;27;20030;-73
2022/11/15 03:08:42;;;;;;;7.85;4.60;;;;;;;3.60;100.00;92668.03;2129253;27;20100;-73
2022/11/15 03:10:04;;;;;;;6.43;4.68;;;;;;;3.64;100.00;92667.97;2138083;27;20026;-73
2022/11/15 03:11:13;;;;;;;5.43;4.30;;;;;;;3.89;100.00;92667.91;2138169;27;20026;-73
2022/11/15 03:12:40;;;;;;;9.10;4.80;;;;;;;3.82;100.00;92658.13;2137610;27;20079;-72
2022/11/15 03:14:10;;;;;;;7.32;4.43;;;;;;;3.77;100.00;92661.91;2138474;27;20042;-73
2022/11/15 03:15:31;;;;;;;5.57;4.63;;;;;;;3.65;100.00;92654.41;2104727;27;20097;-73
2022/11/15 03:16:50;;;;;;;9.32;4.45;;;;;;;3.59;100.00;92655.16;2128548;27;20492;-73
2022/11/15 03:18:00;;;;;;;5.85;4.45;;;;;;;3.52;100.00;92658.59;2129147;27;20478;-73
2022/11/15 03:19:17;;;;;;;6.50;4.80;;;;;;;3.48;100.00;92644.66;2129586;27;20030;-73
2022/11/15 03:20:19;;;;;;;9.18;5.20;;;;;;;3.44;100.00;92655.22;2129400;27;20035;-73
2022/11/15 03:21:22;;;;;;;6.03;5.10;;;;;;;3.37;100.00;92655.22;2129163;27;20047;-72
2022/11/15 03:22:26;;;;;;;8.43;4.47;;;;;;;3.37;100.00;92646.53;2128877;27;20433;-73
2022/11/15 03:23:30;;;;;;;6.35;4.97;;;;;;;3.32;100.00;92652.97;2128002;27;20146;-73
2022/11/15 03:24:34;;;;;;;8.38;5.40;;;;;;;3.25;100.00;92653.00;2129291;27;20038;-73
2022/11/15 03:25:40;;;;;;;6.03;5.30;;;;;;;3.33;100.00;92651.84;2129190;27;20031;-72
2022/11/15 03:26:44;;;;;;;7.50;6.10;;;;;;;3.31;100.00;92648.84;2128691;27;20095;-72
2022/11/15 03:27:53;;;;;;;12.68;6.05;;;;;;;3.28;100.00;92645.06;2124319;27;20068;-72
2022/11/15 03:29:00;;;;;;;8.85;5.60;;;;;;;3.35;100.00;92648.81;2123205;27;20034;-73
2022/11/15 03:30:05;;;;;;;9.45;5.75;;;;;;;3.41;100.00;92645.41;2128209;27;20043;-73
2022/11/15 03:32:31;;;;;;;12.63;6.43;;;;;;;3.49;100.00;92641.59;2134938;27;20026;-73
2022/11/15 03:33:32;;;;;;;7.60;6.00;;;;;;;3.46;100.00;92647.66;2131066;27;20091;-73
2022/11/15 03:34:41;;;;;;;8.55;6.15;;;;;;;3.57;100.00;92645.00;2131997;27;20448;-72
2022/11/15 03:35:45;;;;;;;9.00;5.93;;;;;;;3.68;100.00;92639.66;2131933;27;20057;-72
2022/11/15 03:36:49;;;;;;;9.85;6.10;;;;;;;3.64;100.00;92644.94;2131580;27;20022;-72
2022/11/15 03:37:57;;;;;;;9.10;5.70;;;;;;;3.71;100.00;92639.66;2131810;27;20403;-72
2022/11/15 03:39:04;;;;;;;8.30;5.93;;;;;;;3.75;100.00;92629.81;2131180;27;20448;-72
2022/11/15 03:40:06;;;;;;;9.70;5.40;;;;;;;3.87;100.00;92639.22;2131932;27;20103;-72
2022/11/15 03:41:19;;;;;;;9.68;5.40;;;;;;;3.72;100.00;92635.88;2131283;27;20114;-72
2022/11/15 03:42:55;;;;;;;11.23;6.35;;;;;;;3.90;100.00;92630.50;2131924;27;20027;-73
2022/11/15 03:44:04;;;;;;;6.78;4.82;;;;;;;3.84;100.00;92632.03;2128429;27;20046;-73
2022/11/15 03:45:17;;;;;;;7.18;4.85;;;;;;;3.83;100.00;92630.53;2123393;27;20382;-72
2022/11/15 03:46:32;;;;;;;8.00;4.97;;;;;;;3.88;100.00;92627.50;2122844;27;20027;-73
2022/11/15 03:47:40;;;;;;;8.65;4.90;;;;;;;3.94;100.00;92627.84;2123130;27;20054;-72
2022/11/15 03:48:46;;;;;;;5.78;4.50;;;;;;;3.90;100.00;92629.75;2122981;27;20023;-72
2022/11/15 03:49:53;;;;;;;6.90;4.90;;;;;;;3.83;100.00;92632.44;2132049;27;20035;-72
2022/11/15 03:50:55;;;;;;;6.18;4.80;;;;;;;3.79;100.00;92621.88;2132627;27;20021;-72
2022/11/15 03:51:58;;;;;;;10.75;5.28;;;;;;;3.79;100.00;92632.44;2124450;27;20481;-71
2022/11/15 03:52:59;;;;;;;9.63;4.72;;;;;;;3.80;100.00;92626.03;2131958;27;20026;-72
2022/11/15 03:54:03;;;;;;;7.75;4.70;;;;;;;3.76;100.00;92620.75;2139641;27;20456;-72
2022/11/15 03:55:07;;;;;;;7.32;4.88;;;;;;;3.77;100.00;92619.59;2123526;27;20026;-74
2022/11/15 03:56:09;;;;;;;9.73;5.50;;;;;;;3.79;100.00;92613.94;2122839;27;20058;-73
2022/11/15 03:57:10;;;;;;;6.10;4.50;;;;;;;3.81;100.00;92614.31;2123445;27;20026;-74
2022/11/15 03:58:11;;;;;;;8.80;5.15;;;;;;;3.95;100.00;92608.19;2123159;27;20538;-73
2022/11/15 03:59:12;;;;;;;9.23;5.68;;;;;;;3.94;100.00;92611.97;2122769;27;20119;-73
2022/11/15 04:00:14;;;;;;;6.65;5.05;;;;;;;3.92;100.00;92612.38;2131577;27;20023;-73
2022/11/15 04:01:15;;;;;;;5.95;4.80;;;;;;;3.95;100.00;92619.53;2130097;27;20034;-73
2022/11/15 04:02:16;;;;;;;7.90;5.05;;;;;;;3.94;100.00;92610.09;2131766;27;20388;-72
2022/11/15 04:03:17;;;;;;;7.28;4.75;;;;;;;3.97;100.00;92614.59;2122416;27;20019;-72
2022/11/15 04:04:18;;;;;;;4.80;4.13;;;;;;;3.97;100.00;92605.94;2122277;27;20093;-73
2022/11/15 04:05:19;;;;;;;6.15;4.43;;;;;;;3.93;100.00;92616.53;2131234;27;20069;-73
2022/11/15 04:06:20;;;;;;;5.20;3.83;;;;;;;3.94;100.00;92599.50;2131404;27;20019;-73
2022/11/15 04:07:21;;;;;;;11.30;4.47;;;;;;;3.91;100.00;92602.19;2131763;27;20023;-73
2022/11/15 04:08:22;;;;;;;9.70;4.97;;;;;;;3.92;100.00;92604.44;2131504;27;20030;-72
2022/11/15 04:09:23;;;;;;;7.57;4.07;;;;;;;4.11;100.00;92602.44;2131335;27;20033;-73
2022/11/15 04:10:24;;;;;;;8.45;4.43;;;;;;;4.06;100.00;92603.63;2130890;27;20034;-73
2022/11/15 04:11:25;;;;;;;6.53;4.50;;;;;;;4.02;100.00;92602.88;2135257;27;20031;-73
2022/11/15 04:12:32;;;;;;;6.00;3.97;;;;;;;4.02;100.00;92600.22;2133682;27;20031;-73
2022/11/15 04:13:33;;;;;;;5.82;4.22;;;;;;;4.17;100.00;92611.47;2138605;27;20725;-73
2022/11/15 04:14:34;;;;;;;7.55;4.50;;;;;;;4.23;100.00;92609.94;2139671;27;20033;-73
2022/11/15 04:15:35;;;;;;;8.10;4.68;;;;;;;4.30;100.00;92612.53;2136679;27;20029;-73
2022/11/15 04:16:36;;;;;;;7.70;4.60;;;;;;;4.34;100.00;92607.22;2114138;28;20366;-73
2022/11/15 04:17:49;;;;;;;8.13;4.10;;;;;;;4.32;100.00;92609.50;2114593;28;20008;-73
2022/11/15 04:24:11;;;;;;;9.82;4.07;;;;;;;4.32;100.00;92614.81;2114609;28;20047;-73
2022/11/15 04:24:20;;;;;;;6.95;3.72;;;;;;;4.46;100.00;92590.88;2114460;28;20054;-72
2022/11/15 04:25:21;;;;;;;7.85;3.83;;;;;;;4.50;100.00;92588.97;2114395;28;20458;-73
2022/11/15 04:26:23;;;;;;;6.88;3.67;;;;;;;4.58;100.00;92587.78;2108400;28;20031;-73
2022/11/15 04:27:24;;;;;;;10.63;3.92;;;;;;;4.49;100.00;92588.22;2106132;28;20038;-72
2022/11/15 04:28:25;;;;;;;5.18;3.67;;;;;;;4.46;100.00;92583.69;2106129;28;20102;-73
2022/11/15 04:29:35;;;;;;;8.13;3.80;;;;;;;4.42;100.00;92596.19;2106209;28;20020;-73
2022/11/15 04:30:36;;;;;;;7.68;3.67;;;;;;;4.37;100.00;92601.91;2105843;28;20043;-73
2022/11/15 04:31:37;;;;;;;4.10;3.42;;;;;;;4.50;100.00;92607.50;2112797;27;20027;-73
2022/11/15 04:32:38;;;;;;;3.97;3.38;;;;;;;4.43;100.00;92610.91;2118791;27;20366;-73
2022/11/15 04:33:39;;;;;;;5.28;3.58;;;;;;;4.54;100.00;92611.63;2116760;27;20087;-73
2022/11/15 04:34:40;;;;;;;4.95;4.03;;;;;;;4.65;100.00;92608.88;2122118;27;20467;-73
2022/11/15 04:35:41;;;;;;;12.50;4.70;;;;;;;4.55;100.00;92605.16;2122490;27;20322;-73
2022/11/15 04:38:04;;;;;;;5.85;4.63;;;;;;;4.39;100.00;92604.94;2114590;28;20088;-73
2022/11/15 04:39:06;;;;;;;6.78;4.78;;;;;;;4.36;100.00;92608.34;2114070;28;20050;-73
2022/11/15 04:40:07;;;;;;;8.77;5.43;;;;;;;4.36;100.00;92611.00;2114039;28;20066;-72
2022/11/15 04:41:08;;;;;;;10.52;6.78;;;;;;;4.34;100.00;92604.56;2113885;27;20019;-72
2022/11/15 04:42:10;;;;;;;10.45;6.38;;;;;;;4.39;100.00;92594.34;2117796;27;20231;-72
2022/11/15 04:43:11;;;;;;;10.93;6.20;;;;;;;4.38;100.00;92594.72;2115133;27;20039;-72
2022/11/15 04:44:11;;;;;;;9.02;5.63;;;;;;;4.44;100.00;92601.88;2121292;27;20042;-72
2022/11/15 04:45:12;;;;;;;6.93;5.90;;;;;;;4.46;100.00;92601.47;2122689;27;20492;-72
2022/11/15 04:46:13;;;;;;;11.15;6.10;;;;;;;4.43;100.00;92602.97;2122127;27;20309;-72
2022/11/15 04:47:14;;;;;;;7.55;5.70;;;;;;;4.53;100.00;92604.81;2115782;27;20530;-73
2022/11/15 04:48:15;;;;;;;9.35;6.50;;;;;;;4.51;100.00;92601.03;2114389;28;20024;-72
2022/11/15 04:49:16;;;;;;;7.90;5.97;;;;;;;4.49;100.00;92596.16;2113566;28;20462;-72
2022/11/15 04:50:18;;;;;;;8.25;6.07;;;;;;;4.52;100.00;92584.81;2113682;28;20105;-72
2022/11/15 04:51:19;;;;;;;8.52;5.78;;;;;;;4.55;100.00;92583.25;2113920;28;20019;-72
2022/11/15 04:52:20;;;;;;;6.07;5.47;;;;;;;4.59;100.00;92594.56;2108347;28;20152;-72
2022/11/15 04:53:21;;;;;;;9.68;5.65;;;;;;;4.52;100.00;92590.09;2105804;28;20058;-72
2022/11/15 04:54:22;;;;;;;9.48;5.80;;;;;;;4.54;100.00;92590.44;2105954;28;20032;-72
2022/11/15 04:55:23;;;;;;;11.52;5.57;;;;;;;4.59;100.00;92585.88;2105936;28;20047;-74
2022/11/15 04:56:24;;;;;;;6.78;5.35;;;;;;;4.73;100.00;92591.03;2105299;28;20115;-74
2022/11/15 04:57:25;;;;;;;7.75;5.35;;;;;;;4.73;100.00;92583.84;2109580;28;20034;-73
2022/11/15 04:58:26;;;;;;;14.52;5.43;;;;;;;4.68;100.00;92591.47;2114522;28;20042;-73
2022/11/15 04:59:27;;;;;;;8.00;4.93;;;;;;;4.68;100.00;92578.97;2114247;28;20031;-73
2022/11/15 05:00:29;;;;;;;6.45;4.97;;;;;;;4.80;100.00;92581.16;2116414;27;20047;-72
2022/11/15 05:01:30;;;;;;;8.55;5.43;;;;;;;4.73;100.00;92586.50;2114193;27;20031;-73
2022/11/15 05:04:18;;;;;;;5.75;5.15;;;;;;;4.76;100.00;92572.50;2116381;27;20028;-73
2022/11/15 05:05:11;;;;;;;8.75;5.15;;;;;;;4.70;100.00;92575.97;2122600;27;20091;-72
2022/11/15 05:06:12;;;;;;;8.50;5.60;;;;;;;4.65;100.00;92579.75;2119965;27;20031;-73
2022/11/15 05:07:13;;;;;;;9.40;6.90;;;;;;;4.64;100.00;92585.44;2113923;28;20027;-74
2022/11/15 05:08:14;;;;;;;8.27;5.95;;;;;;;4.60;100.00;92574.88;2113397;28;20023;-73
2022/11/15 05:09:17;;;;;;;9.20;6.15;;;;;;;4.60;100.00;92585.47;2114107;28;20099;-72
2022/11/15 05:10:18;;;;;;;9.70;5.63;;;;;;;4.59;100.00;92589.28;2105713;28;20119;-72
2022/11/15 05:11:20;;;;;;;8.45;5.88;;;;;;;4.60;100.00;92582.81;2105200;28;20032;-71
2022/11/15 05:12:21;;;;;;;6.55;5.70;;;;;;;4.60;100.00;92579.44;2105367;28;20067;-73
2022/11/15 05:13:22;;;;;;;10.35;6.15;;;;;;;4.58;100.00;92579.09;2112323;28;20366;-73
2022/11/15 05:14:23;;;;;;;8.60;5.85;;;;;;;4.61;100.00;92578.28;2114068;28;21001;-73
2022/11/15 05:15:24;;;;;;;6.85;5.70;;;;;;;4.61;100.00;92571.13;2114169;28;20040;-73
2022/11/15 05:16:25;;;;;;;8.63;5.65;;;;;;;4.60;100.00;92585.47;2127442;27;20125;-73
2022/11/15 05:17:26;;;;;;;18.58;11.05;;;;;;;4.58;100.00;92585.13;2130886;27;20079;-73
2022/11/15 05:18:27;;;;;;;10.27;6.80;;;;;;;4.57;100.00;92583.63;2130558;27;20455;-73